sensor_id;sensor_type;location;lat;lon;timestamp;P1;durP1;ratioP1;P2;durP2;ratioP2
13592;SDS011;6867;50.998;4.250;2023-04-03T00:01:18;10.53;;;7.23;;
13592;SDS011;6867;50.998;4.250;2023-04-03T00:03:45;9.27;;;7.07;;
13592;SDS011;6867;50.998;4.250;2023-04-03T00:06:12;8.53;;;6.97;;
13592;SDS011;6867;50.998;4.250;2023-04-03T00:08:40;10.57;;;7.10;;
13592;SDS011;6867;50.998;4.250;2023-04-03T00:11:07;12.23;;;7.67;;
13592;SDS011;6867;50.998;4.250;2023-04-03T00:13:35;12.40;;;7.17;;
13592;SDS011;6867;50.998;4.250;2023-04-03T00:16:02;14.37;;;7.10;;
13592;SDS011;6867;50.998;4.250;2023-04-03T00:18:30;9.63;;;7.10;;
13592;SDS011;6867;50.998;4.250;2023-04-03T00:20:57;8.77;;;6.27;;
13592;SDS011;6867;50.998;4.250;2023-04-03T00:23:24;10.43;;;7.13;;
13592;SDS011;6867;50.998;4.250;2023-04-03T00:25:53;10.53;;;7.13;;
13592;SDS011;6867;50.998;4.250;2023-04-03T00:28:20;11.07;;;6.27;;
13592;SDS011;6867;50.998;4.250;2023-04-03T00:30:48;10.40;;;6.37;;
13592;SDS011;6867;50.998;4.250;2023-04-03T00:33:15;9.90;;;6.13;;
13592;SDS011;6867;50.998;4.250;2023-04-03T00:35:42;7.20;;;5.63;;
13592;SDS011;6867;50.998;4.250;2023-04-03T00:38:09;10.03;;;6.77;;
13592;SDS011;6867;50.998;4.250;2023-04-03T00:40:36;8.53;;;5.80;;
13592;SDS011;6867;50.998;4.250;2023-04-03T00:43:09;7.73;;;6.13;;
13592;SDS011;6867;50.998;4.250;2023-04-03T00:45:39;11.00;;;6.13;;
13592;SDS011;6867;50.998;4.250;2023-04-03T00:48:07;9.53;;;5.90;;
13592;SDS011;6867;50.998;4.250;2023-04-03T00:50:38;10.47;;;6.30;;
13592;SDS011;6867;50.998;4.250;2023-04-03T00:53:08;8.30;;;5.83;;
13592;SDS011;6867;50.998;4.250;2023-04-03T00:55:39;11.63;;;6.37;;
13592;SDS011;6867;50.998;4.250;2023-04-03T00:58:09;10.67;;;5.27;;
13592;SDS011;6867;50.998;4.250;2023-04-03T01:00:37;8.03;;;5.93;;
13592;SDS011;6867;50.998;4.250;2023-04-03T01:03:06;7.43;;;5.50;;
13592;SDS011;6867;50.998;4.250;2023-04-03T01:05:32;6.67;;;5.27;;
13592;SDS011;6867;50.998;4.250;2023-04-03T01:07:59;8.50;;;6.10;;
13592;SDS011;6867;50.998;4.250;2023-04-03T01:10:27;8.30;;;6.23;;
13592;SDS011;6867;50.998;4.250;2023-04-03T01:12:53;10.33;;;5.80;;
13592;SDS011;6867;50.998;4.250;2023-04-03T01:15:23;7.57;;;5.57;;
13592;SDS011;6867;50.998;4.250;2023-04-03T01:17:52;8.57;;;5.60;;
13592;SDS011;6867;50.998;4.250;2023-04-03T01:23:25;7.53;;;5.63;;
13592;SDS011;6867;50.998;4.250;2023-04-03T01:25:58;8.43;;;5.97;;
13592;SDS011;6867;50.998;4.250;2023-04-03T01:28:26;6.80;;;5.43;;
13592;SDS011;6867;50.998;4.250;2023-04-03T01:30:59;6.83;;;5.33;;
13592;SDS011;6867;50.998;4.250;2023-04-03T01:33:34;11.33;;;5.60;;
13592;SDS011;6867;50.998;4.250;2023-04-03T01:36:01;6.83;;;5.63;;
13592;SDS011;6867;50.998;4.250;2023-04-03T01:38:29;9.40;;;6.30;;
13592;SDS011;6867;50.998;4.250;2023-04-03T01:40:56;9.03;;;6.50;;
13592;SDS011;6867;50.998;4.250;2023-04-03T01:43:22;7.77;;;5.73;;
13592;SDS011;6867;50.998;4.250;2023-04-03T01:45:49;10.47;;;7.00;;
13592;SDS011;6867;50.998;4.250;2023-04-03T01:48:17;11.53;;;5.50;;
13592;SDS011;6867;50.998;4.250;2023-04-03T01:50:46;9.33;;;6.17;;
13592;SDS011;6867;50.998;4.250;2023-04-03T01:53:12;8.13;;;6.07;;
13592;SDS011;6867;50.998;4.250;2023-04-03T01:55:40;7.50;;;5.70;;
13592;SDS011;6867;50.998;4.250;2023-04-03T01:58:06;10.60;;;5.97;;
13592;SDS011;6867;50.998;4.250;2023-04-03T02:00:33;12.17;;;7.13;;
13592;SDS011;6867;50.998;4.250;2023-04-03T02:03:00;9.87;;;5.97;;
13592;SDS011;6867;50.998;4.250;2023-04-03T02:05:26;12.83;;;6.57;;
13592;SDS011;6867;50.998;4.250;2023-04-03T02:07:54;7.90;;;6.40;;
13592;SDS011;6867;50.998;4.250;2023-04-03T02:10:22;10.70;;;7.20;;
13592;SDS011;6867;50.998;4.250;2023-04-03T02:12:48;9.97;;;6.57;;
13592;SDS011;6867;50.998;4.250;2023-04-03T02:15:15;8.90;;;7.03;;
13592;SDS011;6867;50.998;4.250;2023-04-03T02:17:42;14.07;;;7.47;;
13592;SDS011;6867;50.998;4.250;2023-04-03T02:20:09;11.43;;;7.50;;
13592;SDS011;6867;50.998;4.250;2023-04-03T02:22:36;12.60;;;7.30;;
13592;SDS011;6867;50.998;4.250;2023-04-03T02:25:05;12.83;;;7.73;;
13592;SDS011;6867;50.998;4.250;2023-04-03T02:27:32;11.37;;;7.03;;
13592;SDS011;6867;50.998;4.250;2023-04-03T02:29:58;9.47;;;6.93;;
13592;SDS011;6867;50.998;4.250;2023-04-03T02:32:26;10.37;;;7.90;;
13592;SDS011;6867;50.998;4.250;2023-04-03T02:34:52;13.33;;;7.33;;
13592;SDS011;6867;50.998;4.250;2023-04-03T02:37:19;12.33;;;7.63;;
13592;SDS011;6867;50.998;4.250;2023-04-03T02:39:46;14.93;;;7.30;;
13592;SDS011;6867;50.998;4.250;2023-04-03T02:42:14;12.67;;;8.10;;
13592;SDS011;6867;50.998;4.250;2023-04-03T02:44:41;11.00;;;7.57;;
13592;SDS011;6867;50.998;4.250;2023-04-03T02:47:07;11.90;;;6.77;;
13592;SDS011;6867;50.998;4.250;2023-04-03T02:49:34;10.13;;;7.27;;
13592;SDS011;6867;50.998;4.250;2023-04-03T02:52:01;13.57;;;7.17;;
13592;SDS011;6867;50.998;4.250;2023-04-03T02:54:28;15.27;;;7.57;;
13592;SDS011;6867;50.998;4.250;2023-04-03T02:56:56;12.93;;;7.80;;
13592;SDS011;6867;50.998;4.250;2023-04-03T02:59:24;11.50;;;7.40;;
13592;SDS011;6867;50.998;4.250;2023-04-03T03:01:51;11.47;;;7.63;;
13592;SDS011;6867;50.998;4.250;2023-04-03T03:04:18;12.97;;;7.57;;
13592;SDS011;6867;50.998;4.250;2023-04-03T03:06:45;10.67;;;7.93;;
13592;SDS011;6867;50.998;4.250;2023-04-03T03:09:12;13.33;;;8.33;;
13592;SDS011;6867;50.998;4.250;2023-04-03T03:11:39;11.00;;;7.67;;
13592;SDS011;6867;50.998;4.250;2023-04-03T03:14:06;9.90;;;7.63;;
13592;SDS011;6867;50.998;4.250;2023-04-03T03:16:34;11.13;;;7.93;;
13592;SDS011;6867;50.998;4.250;2023-04-03T03:19:01;13.17;;;8.27;;
13592;SDS011;6867;50.998;4.250;2023-04-03T03:21:27;12.30;;;7.80;;
13592;SDS011;6867;50.998;4.250;2023-04-03T03:23:54;13.53;;;8.00;;
13592;SDS011;6867;50.998;4.250;2023-04-03T03:26:21;10.87;;;8.17;;
13592;SDS011;6867;50.998;4.250;2023-04-03T03:28:48;12.73;;;7.87;;
13592;SDS011;6867;50.998;4.250;2023-04-03T03:31:15;13.63;;;7.80;;
13592;SDS011;6867;50.998;4.250;2023-04-03T03:33:43;12.40;;;7.57;;
13592;SDS011;6867;50.998;4.250;2023-04-03T03:36:10;14.07;;;8.13;;
13592;SDS011;6867;50.998;4.250;2023-04-03T03:38:37;11.10;;;7.80;;
13592;SDS011;6867;50.998;4.250;2023-04-03T03:41:03;12.27;;;8.40;;
13592;SDS011;6867;50.998;4.250;2023-04-03T03:43:30;11.00;;;7.93;;
13592;SDS011;6867;50.998;4.250;2023-04-03T03:45:57;13.17;;;7.90;;
13592;SDS011;6867;50.998;4.250;2023-04-03T03:48:23;14.67;;;8.27;;
13592;SDS011;6867;50.998;4.250;2023-04-03T03:50:52;14.83;;;8.53;;
13592;SDS011;6867;50.998;4.250;2023-04-03T03:53:19;13.70;;;7.70;;
13592;SDS011;6867;50.998;4.250;2023-04-03T03:55:45;13.03;;;8.20;;
13592;SDS011;6867;50.998;4.250;2023-04-03T03:58:12;11.00;;;7.27;;
13592;SDS011;6867;50.998;4.250;2023-04-03T04:00:39;11.47;;;8.10;;
13592;SDS011;6867;50.998;4.250;2023-04-03T04:03:06;13.07;;;9.17;;
13592;SDS011;6867;50.998;4.250;2023-04-03T04:05:32;12.17;;;8.27;;
13592;SDS011;6867;50.998;4.250;2023-04-03T04:08:00;13.10;;;8.03;;
13592;SDS011;6867;50.998;4.250;2023-04-03T04:10:27;15.27;;;8.37;;
13592;SDS011;6867;50.998;4.250;2023-04-03T04:12:54;14.83;;;9.43;;
13592;SDS011;6867;50.998;4.250;2023-04-03T04:15:21;12.03;;;8.30;;
13592;SDS011;6867;50.998;4.250;2023-04-03T04:17:48;15.33;;;9.00;;
13592;SDS011;6867;50.998;4.250;2023-04-03T04:20:14;14.27;;;9.50;;
13592;SDS011;6867;50.998;4.250;2023-04-03T04:22:41;14.10;;;9.03;;
13592;SDS011;6867;50.998;4.250;2023-04-03T04:25:09;13.13;;;8.93;;
13592;SDS011;6867;50.998;4.250;2023-04-03T04:27:36;15.07;;;9.30;;
13592;SDS011;6867;50.998;4.250;2023-04-03T04:30:03;11.77;;;8.57;;
13592;SDS011;6867;50.998;4.250;2023-04-03T04:32:31;15.10;;;8.97;;
13592;SDS011;6867;50.998;4.250;2023-04-03T04:35:02;12.67;;;8.43;;
13592;SDS011;6867;50.998;4.250;2023-04-03T04:37:30;13.07;;;8.77;;
13592;SDS011;6867;50.998;4.250;2023-04-03T04:39:56;14.00;;;8.87;;
13592;SDS011;6867;50.998;4.250;2023-04-03T04:42:24;16.97;;;8.83;;
13592;SDS011;6867;50.998;4.250;2023-04-03T04:44:52;12.43;;;9.03;;
13592;SDS011;6867;50.998;4.250;2023-04-03T04:47:19;14.43;;;9.80;;
13592;SDS011;6867;50.998;4.250;2023-04-03T04:49:45;14.73;;;9.20;;
13592;SDS011;6867;50.998;4.250;2023-04-03T04:52:13;11.13;;;8.37;;
13592;SDS011;6867;50.998;4.250;2023-04-03T04:54:40;12.87;;;8.97;;
13592;SDS011;6867;50.998;4.250;2023-04-03T04:57:06;13.57;;;8.80;;
13592;SDS011;6867;50.998;4.250;2023-04-03T04:59:34;11.63;;;8.70;;
13592;SDS011;6867;50.998;4.250;2023-04-03T05:02:01;18.33;;;8.97;;
13592;SDS011;6867;50.998;4.250;2023-04-03T05:04:28;15.20;;;8.90;;
13592;SDS011;6867;50.998;4.250;2023-04-03T05:06:58;17.17;;;10.10;;
13592;SDS011;6867;50.998;4.250;2023-04-03T05:09:25;11.93;;;9.03;;
13592;SDS011;6867;50.998;4.250;2023-04-03T05:11:52;12.13;;;8.50;;
13592;SDS011;6867;50.998;4.250;2023-04-03T05:14:19;12.03;;;8.60;;
13592;SDS011;6867;50.998;4.250;2023-04-03T05:16:48;11.43;;;8.80;;
13592;SDS011;6867;50.998;4.250;2023-04-03T05:19:17;18.00;;;9.40;;
13592;SDS011;6867;50.998;4.250;2023-04-03T05:21:45;13.30;;;8.83;;
13592;SDS011;6867;50.998;4.250;2023-04-03T05:24:11;14.60;;;9.07;;
13592;SDS011;6867;50.998;4.250;2023-04-03T05:26:38;12.73;;;8.67;;
13592;SDS011;6867;50.998;4.250;2023-04-03T05:29:05;11.73;;;8.63;;
13592;SDS011;6867;50.998;4.250;2023-04-03T05:31:32;15.80;;;8.97;;
13592;SDS011;6867;50.998;4.250;2023-04-03T05:34:00;14.27;;;8.97;;
13592;SDS011;6867;50.998;4.250;2023-04-03T05:36:27;13.73;;;8.77;;
13592;SDS011;6867;50.998;4.250;2023-04-03T05:38:53;10.13;;;7.10;;
13592;SDS011;6867;50.998;4.250;2023-04-03T05:41:21;10.90;;;8.27;;
13592;SDS011;6867;50.998;4.250;2023-04-03T05:43:48;12.10;;;7.60;;
13592;SDS011;6867;50.998;4.250;2023-04-03T05:46:15;13.90;;;8.47;;
13592;SDS011;6867;50.998;4.250;2023-04-03T05:48:45;12.83;;;8.27;;
13592;SDS011;6867;50.998;4.250;2023-04-03T05:51:15;16.73;;;8.93;;
13592;SDS011;6867;50.998;4.250;2023-04-03T05:53:43;13.33;;;8.43;;
13592;SDS011;6867;50.998;4.250;2023-04-03T05:56:11;12.03;;;8.30;;
13592;SDS011;6867;50.998;4.250;2023-04-03T05:58:38;17.77;;;10.17;;
13592;SDS011;6867;50.998;4.250;2023-04-03T06:01:05;12.20;;;8.53;;
13592;SDS011;6867;50.998;4.250;2023-04-03T06:03:32;14.17;;;8.83;;
13592;SDS011;6867;50.998;4.250;2023-04-03T06:06:00;14.97;;;9.33;;
13592;SDS011;6867;50.998;4.250;2023-04-03T06:08:30;13.13;;;8.50;;
13592;SDS011;6867;50.998;4.250;2023-04-03T06:10:57;12.87;;;8.33;;
13592;SDS011;6867;50.998;4.250;2023-04-03T06:13:24;14.47;;;9.40;;
13592;SDS011;6867;50.998;4.250;2023-04-03T06:15:51;16.60;;;10.40;;
13592;SDS011;6867;50.998;4.250;2023-04-03T06:18:18;13.40;;;9.30;;
13592;SDS011;6867;50.998;4.250;2023-04-03T06:20:45;11.80;;;8.77;;
13592;SDS011;6867;50.998;4.250;2023-04-03T06:23:11;14.43;;;9.50;;
13592;SDS011;6867;50.998;4.250;2023-04-03T06:25:39;14.40;;;10.10;;
13592;SDS011;6867;50.998;4.250;2023-04-03T06:28:07;15.73;;;9.77;;
13592;SDS011;6867;50.998;4.250;2023-04-03T06:30:35;15.37;;;9.87;;
13592;SDS011;6867;50.998;4.250;2023-04-03T06:33:02;16.43;;;10.47;;
13592;SDS011;6867;50.998;4.250;2023-04-03T06:35:29;20.87;;;11.43;;
13592;SDS011;6867;50.998;4.250;2023-04-03T06:37:56;18.93;;;11.43;;
13592;SDS011;6867;50.998;4.250;2023-04-03T06:40:23;17.33;;;12.23;;
13592;SDS011;6867;50.998;4.250;2023-04-03T06:42:52;17.23;;;12.00;;
13592;SDS011;6867;50.998;4.250;2023-04-03T06:45:19;20.87;;;12.70;;
13592;SDS011;6867;50.998;4.250;2023-04-03T06:47:46;20.67;;;12.90;;
13592;SDS011;6867;50.998;4.250;2023-04-03T06:50:13;20.97;;;13.63;;
13592;SDS011;6867;50.998;4.250;2023-04-03T06:52:40;20.47;;;13.47;;
13592;SDS011;6867;50.998;4.250;2023-04-03T06:55:08;19.93;;;14.27;;
13592;SDS011;6867;50.998;4.250;2023-04-03T06:57:35;21.43;;;14.37;;
13592;SDS011;6867;50.998;4.250;2023-04-03T07:00:05;27.03;;;15.53;;
13592;SDS011;6867;50.998;4.250;2023-04-03T07:02:34;21.60;;;15.20;;
13592;SDS011;6867;50.998;4.250;2023-04-03T07:05:01;23.33;;;14.10;;
13592;SDS011;6867;50.998;4.250;2023-04-03T07:07:27;21.43;;;14.83;;
13592;SDS011;6867;50.998;4.250;2023-04-03T07:09:54;22.07;;;14.43;;
13592;SDS011;6867;50.998;4.250;2023-04-03T07:12:21;18.10;;;13.93;;
13592;SDS011;6867;50.998;4.250;2023-04-03T07:14:48;21.20;;;14.87;;
13592;SDS011;6867;50.998;4.250;2023-04-03T07:17:16;26.40;;;15.10;;
13592;SDS011;6867;50.998;4.250;2023-04-03T07:19:42;20.53;;;14.30;;
13592;SDS011;6867;50.998;4.250;2023-04-03T07:22:09;23.40;;;13.53;;
13592;SDS011;6867;50.998;4.250;2023-04-03T07:24:37;21.63;;;13.50;;
13592;SDS011;6867;50.998;4.250;2023-04-03T07:27:04;19.13;;;13.27;;
13592;SDS011;6867;50.998;4.250;2023-04-03T07:29:30;17.67;;;13.37;;
13592;SDS011;6867;50.998;4.250;2023-04-03T07:31:57;18.63;;;12.83;;
13592;SDS011;6867;50.998;4.250;2023-04-03T07:34:26;22.37;;;12.63;;
13592;SDS011;6867;50.998;4.250;2023-04-03T07:36:52;16.07;;;11.17;;
13592;SDS011;6867;50.998;4.250;2023-04-03T07:39:20;18.57;;;11.80;;
13592;SDS011;6867;50.998;4.250;2023-04-03T07:41:47;17.40;;;11.53;;
13592;SDS011;6867;50.998;4.250;2023-04-03T07:44:13;17.97;;;11.50;;
13592;SDS011;6867;50.998;4.250;2023-04-03T07:46:40;14.60;;;11.00;;
13592;SDS011;6867;50.998;4.250;2023-04-03T07:49:07;14.23;;;9.63;;
13592;SDS011;6867;50.998;4.250;2023-04-03T07:51:36;16.80;;;9.80;;
13592;SDS011;6867;50.998;4.250;2023-04-03T07:54:03;12.27;;;9.37;;
13592;SDS011;6867;50.998;4.250;2023-04-03T07:56:30;11.20;;;8.60;;
13592;SDS011;6867;50.998;4.250;2023-04-03T07:58:57;10.03;;;8.10;;
13592;SDS011;6867;50.998;4.250;2023-04-03T08:01:23;13.47;;;8.43;;
13592;SDS011;6867;50.998;4.250;2023-04-03T08:03:51;16.50;;;8.53;;
13592;SDS011;6867;50.998;4.250;2023-04-03T08:06:17;9.77;;;7.20;;
13592;SDS011;6867;50.998;4.250;2023-04-03T08:08:45;11.70;;;6.87;;
13592;SDS011;6867;50.998;4.250;2023-04-03T08:11:12;10.27;;;6.97;;
13592;SDS011;6867;50.998;4.250;2023-04-03T08:13:39;10.77;;;7.03;;
13592;SDS011;6867;50.998;4.250;2023-04-03T08:16:07;11.93;;;7.40;;
13592;SDS011;6867;50.998;4.250;2023-04-03T08:18:36;8.73;;;6.57;;
13592;SDS011;6867;50.998;4.250;2023-04-03T08:21:07;10.53;;;6.43;;
13592;SDS011;6867;50.998;4.250;2023-04-03T08:23:35;8.20;;;5.73;;
13592;SDS011;6867;50.998;4.250;2023-04-03T08:26:08;7.13;;;5.77;;
13592;SDS011;6867;50.998;4.250;2023-04-03T08:28:35;9.47;;;5.83;;
13592;SDS011;6867;50.998;4.250;2023-04-03T08:31:02;7.07;;;5.07;;
13592;SDS011;6867;50.998;4.250;2023-04-03T08:33:32;6.40;;;4.80;;
13592;SDS011;6867;50.998;4.250;2023-04-03T08:35:58;7.17;;;4.50;;
13592;SDS011;6867;50.998;4.250;2023-04-03T08:38:25;9.47;;;5.00;;
13592;SDS011;6867;50.998;4.250;2023-04-03T08:41:00;5.73;;;4.30;;
13592;SDS011;6867;50.998;4.250;2023-04-03T08:43:34;6.13;;;4.50;;
13592;SDS011;6867;50.998;4.250;2023-04-03T08:46:08;6.70;;;4.73;;
13592;SDS011;6867;50.998;4.250;2023-04-03T08:48:40;5.10;;;4.10;;
13592;SDS011;6867;50.998;4.250;2023-04-03T08:51:10;8.67;;;4.43;;
13592;SDS011;6867;50.998;4.250;2023-04-03T08:53:42;6.70;;;4.40;;
13592;SDS011;6867;50.998;4.250;2023-04-03T08:56:12;7.30;;;4.53;;
13592;SDS011;6867;50.998;4.250;2023-04-03T08:58:46;8.97;;;4.10;;
13592;SDS011;6867;50.998;4.250;2023-04-03T09:01:19;6.23;;;4.07;;
13592;SDS011;6867;50.998;4.250;2023-04-03T09:03:49;4.87;;;3.80;;
13592;SDS011;6867;50.998;4.250;2023-04-03T09:06:16;4.77;;;3.53;;
13592;SDS011;6867;50.998;4.250;2023-04-03T09:08:47;7.53;;;4.10;;
13592;SDS011;6867;50.998;4.250;2023-04-03T09:11:22;5.43;;;3.90;;
13592;SDS011;6867;50.998;4.250;2023-04-03T09:13:54;10.27;;;4.27;;
13592;SDS011;6867;50.998;4.250;2023-04-03T09:16:28;6.57;;;3.87;;
13592;SDS011;6867;50.998;4.250;2023-04-03T09:19:04;5.70;;;3.40;;
13592;SDS011;6867;50.998;4.250;2023-04-03T09:21:40;6.30;;;3.33;;
13592;SDS011;6867;50.998;4.250;2023-04-03T09:24:08;5.17;;;3.20;;
13592;SDS011;6867;50.998;4.250;2023-04-03T09:26:39;4.53;;;3.13;;
13592;SDS011;6867;50.998;4.250;2023-04-03T09:29:12;6.97;;;3.10;;
13592;SDS011;6867;50.998;4.250;2023-04-03T09:31:46;6.97;;;3.00;;
13592;SDS011;6867;50.998;4.250;2023-04-03T09:34:17;5.43;;;2.83;;
13592;SDS011;6867;50.998;4.250;2023-04-03T09:36:48;4.43;;;2.90;;
13592;SDS011;6867;50.998;4.250;2023-04-03T09:39:17;3.80;;;2.70;;
13592;SDS011;6867;50.998;4.250;2023-04-03T09:41:55;3.23;;;2.10;;
13592;SDS011;6867;50.998;4.250;2023-04-03T09:44:27;3.53;;;2.30;;
13592;SDS011;6867;50.998;4.250;2023-04-03T09:46:56;6.53;;;2.77;;
13592;SDS011;6867;50.998;4.250;2023-04-03T09:49:23;3.50;;;1.93;;
13592;SDS011;6867;50.998;4.250;2023-04-03T09:51:50;4.70;;;2.63;;
13592;SDS011;6867;50.998;4.250;2023-04-03T09:54:29;4.53;;;2.87;;
13592;SDS011;6867;50.998;4.250;2023-04-03T09:56:58;5.60;;;2.13;;
13592;SDS011;6867;50.998;4.250;2023-04-03T09:59:31;6.30;;;2.53;;
13592;SDS011;6867;50.998;4.250;2023-04-03T10:01:59;2.67;;;2.00;;
13592;SDS011;6867;50.998;4.250;2023-04-03T10:04:36;7.13;;;2.50;;
13592;SDS011;6867;50.998;4.250;2023-04-03T10:07:05;2.87;;;1.73;;
13592;SDS011;6867;50.998;4.250;2023-04-03T10:09:56;7.47;;;2.00;;
13592;SDS011;6867;50.998;4.250;2023-04-03T10:12:24;8.07;;;2.03;;
13592;SDS011;6867;50.998;4.250;2023-04-03T10:14:56;4.33;;;2.13;;
13592;SDS011;6867;50.998;4.250;2023-04-03T10:17:26;3.17;;;2.20;;
13592;SDS011;6867;50.998;4.250;2023-04-03T10:20:09;5.27;;;2.37;;
13592;SDS011;6867;50.998;4.250;2023-04-03T10:22:55;5.63;;;2.20;;
13592;SDS011;6867;50.998;4.250;2023-04-03T10:25:28;4.83;;;2.10;;
13592;SDS011;6867;50.998;4.250;2023-04-03T10:28:03;4.20;;;1.87;;
13592;SDS011;6867;50.998;4.250;2023-04-03T10:30:39;3.57;;;1.93;;
13592;SDS011;6867;50.998;4.250;2023-04-03T10:33:18;4.27;;;1.70;;
13592;SDS011;6867;50.998;4.250;2023-04-03T10:35:53;3.27;;;1.70;;
13592;SDS011;6867;50.998;4.250;2023-04-03T10:38:31;3.67;;;1.90;;
13592;SDS011;6867;50.998;4.250;2023-04-03T10:41:04;2.70;;;1.73;;
13592;SDS011;6867;50.998;4.250;2023-04-03T10:43:40;3.27;;;2.23;;
13592;SDS011;6867;50.998;4.250;2023-04-03T10:46:12;2.77;;;1.80;;
13592;SDS011;6867;50.998;4.250;2023-04-03T10:51:43;4.23;;;1.60;;
13592;SDS011;6867;50.998;4.250;2023-04-03T10:54:12;2.93;;;1.80;;
13592;SDS011;6867;50.998;4.250;2023-04-03T10:56:47;2.77;;;1.80;;
13592;SDS011;6867;50.998;4.250;2023-04-03T10:59:18;4.67;;;1.90;;
13592;SDS011;6867;50.998;4.250;2023-04-03T11:01:53;3.60;;;1.83;;
13592;SDS011;6867;50.998;4.250;2023-04-03T11:04:24;2.80;;;1.60;;
13592;SDS011;6867;50.998;4.250;2023-04-03T11:06:56;1.97;;;1.63;;
13592;SDS011;6867;50.998;4.250;2023-04-03T11:09:26;4.83;;;1.90;;
13592;SDS011;6867;50.998;4.250;2023-04-03T11:11:55;5.87;;;2.30;;
13592;SDS011;6867;50.998;4.250;2023-04-03T11:14:27;7.43;;;1.93;;
13592;SDS011;6867;50.998;4.250;2023-04-03T11:17:04;3.73;;;1.83;;
13592;SDS011;6867;50.998;4.250;2023-04-03T11:19:41;2.53;;;1.37;;
13592;SDS011;6867;50.998;4.250;2023-04-03T11:22:14;3.23;;;1.50;;
13592;SDS011;6867;50.998;4.250;2023-04-03T11:24:51;3.97;;;1.77;;
13592;SDS011;6867;50.998;4.250;2023-04-03T11:27:23;2.00;;;1.23;;
13592;SDS011;6867;50.998;4.250;2023-04-03T11:29:52;1.10;;;0.90;;
13592;SDS011;6867;50.998;4.250;2023-04-03T11:32:34;3.37;;;1.50;;
13592;SDS011;6867;50.998;4.250;2023-04-03T11:35:13;2.00;;;1.47;;
13592;SDS011;6867;50.998;4.250;2023-04-03T11:37:42;4.60;;;1.57;;
13592;SDS011;6867;50.998;4.250;2023-04-03T11:40:19;3.80;;;1.37;;
13592;SDS011;6867;50.998;4.250;2023-04-03T11:42:48;2.27;;;1.60;;
13592;SDS011;6867;50.998;4.250;2023-04-03T11:45:26;3.67;;;1.50;;
13592;SDS011;6867;50.998;4.250;2023-04-03T11:48:01;3.97;;;1.40;;
13592;SDS011;6867;50.998;4.250;2023-04-03T11:50:38;3.47;;;1.43;;
13592;SDS011;6867;50.998;4.250;2023-04-03T11:53:27;6.63;;;1.47;;
13592;SDS011;6867;50.998;4.250;2023-04-03T11:59:16;1.97;;;1.13;;
13592;SDS011;6867;50.998;4.250;2023-04-03T12:01:49;1.80;;;1.10;;
13592;SDS011;6867;50.998;4.250;2023-04-03T12:04:19;2.57;;;1.10;;
13592;SDS011;6867;50.998;4.250;2023-04-03T12:06:49;2.87;;;1.30;;
13592;SDS011;6867;50.998;4.250;2023-04-03T12:12:42;2.67;;;1.40;;
13592;SDS011;6867;50.998;4.250;2023-04-03T12:21:25;1.27;;;0.90;;
13592;SDS011;6867;50.998;4.250;2023-04-03T12:24:35;2.93;;;1.33;;
13592;SDS011;6867;50.998;4.250;2023-04-03T12:30:05;2.87;;;1.10;;
13592;SDS011;6867;50.998;4.250;2023-04-03T12:32:43;1.90;;;1.00;;
13592;SDS011;6867;50.998;4.250;2023-04-03T12:35:19;1.20;;;0.97;;
13592;SDS011;6867;50.998;4.250;2023-04-03T12:38:00;1.10;;;0.90;;
13592;SDS011;6867;50.998;4.250;2023-04-03T12:41:18;2.07;;;1.20;;
13592;SDS011;6867;50.998;4.250;2023-04-03T12:43:50;4.90;;;1.03;;
13592;SDS011;6867;50.998;4.250;2023-04-03T12:46:34;1.80;;;1.10;;
13592;SDS011;6867;50.998;4.250;2023-04-03T12:49:10;1.87;;;0.90;;
13592;SDS011;6867;50.998;4.250;2023-04-03T12:51:47;4.23;;;1.00;;
13592;SDS011;6867;50.998;4.250;2023-04-03T12:54:16;1.50;;;1.00;;
13592;SDS011;6867;50.998;4.250;2023-04-03T12:56:47;2.30;;;1.07;;
13592;SDS011;6867;50.998;4.250;2023-04-03T12:59:16;1.40;;;0.90;;
13592;SDS011;6867;50.998;4.250;2023-04-03T13:01:52;1.93;;;1.23;;
13592;SDS011;6867;50.998;4.250;2023-04-03T13:04:21;1.97;;;1.03;;
13592;SDS011;6867;50.998;4.250;2023-04-03T13:06:48;1.87;;;0.77;;
13592;SDS011;6867;50.998;4.250;2023-04-03T13:09:20;1.87;;;1.13;;
13592;SDS011;6867;50.998;4.250;2023-04-03T13:11:49;3.63;;;1.00;;
13592;SDS011;6867;50.998;4.250;2023-04-03T13:14:19;1.50;;;1.03;;
13592;SDS011;6867;50.998;4.250;2023-04-03T13:16:55;1.30;;;0.80;;
13592;SDS011;6867;50.998;4.250;2023-04-03T13:19:23;2.00;;;1.03;;
13592;SDS011;6867;50.998;4.250;2023-04-03T13:21:51;3.60;;;0.93;;
13592;SDS011;6867;50.998;4.250;2023-04-03T13:24:26;2.73;;;1.20;;
13592;SDS011;6867;50.998;4.250;2023-04-03T13:26:55;5.43;;;1.20;;
13592;SDS011;6867;50.998;4.250;2023-04-03T13:29:23;2.27;;;1.10;;
13592;SDS011;6867;50.998;4.250;2023-04-03T13:31:53;2.40;;;1.17;;
13592;SDS011;6867;50.998;4.250;2023-04-03T13:34:22;1.87;;;1.10;;
13592;SDS011;6867;50.998;4.250;2023-04-03T13:36:55;2.93;;;1.00;;
13592;SDS011;6867;50.998;4.250;2023-04-03T13:39:25;3.47;;;1.20;;
13592;SDS011;6867;50.998;4.250;2023-04-03T13:41:55;2.67;;;1.40;;
13592;SDS011;6867;50.998;4.250;2023-04-03T13:44:28;1.50;;;1.00;;
13592;SDS011;6867;50.998;4.250;2023-04-03T13:46:59;2.80;;;1.13;;
13592;SDS011;6867;50.998;4.250;2023-04-03T13:49:40;2.40;;;1.17;;
13592;SDS011;6867;50.998;4.250;2023-04-03T13:52:22;1.83;;;0.93;;
13592;SDS011;6867;50.998;4.250;2023-04-03T13:54:54;2.33;;;1.07;;
13592;SDS011;6867;50.998;4.250;2023-04-03T13:57:24;3.57;;;1.33;;
13592;SDS011;6867;50.998;4.250;2023-04-03T13:59:51;3.17;;;1.40;;
13592;SDS011;6867;50.998;4.250;2023-04-03T14:02:18;2.43;;;1.20;;
13592;SDS011;6867;50.998;4.250;2023-04-03T14:04:49;2.53;;;1.37;;
13592;SDS011;6867;50.998;4.250;2023-04-03T14:07:21;2.93;;;1.30;;
13592;SDS011;6867;50.998;4.250;2023-04-03T14:09:49;3.33;;;1.43;;
13592;SDS011;6867;50.998;4.250;2023-04-03T14:12:18;3.60;;;1.30;;
13592;SDS011;6867;50.998;4.250;2023-04-03T14:14:52;2.87;;;1.57;;
13592;SDS011;6867;50.998;4.250;2023-04-03T14:17:22;3.33;;;1.13;;
13592;SDS011;6867;50.998;4.250;2023-04-03T14:19:51;2.60;;;1.40;;
13592;SDS011;6867;50.998;4.250;2023-04-03T14:22:21;3.67;;;1.33;;
13592;SDS011;6867;50.998;4.250;2023-04-03T14:24:49;3.23;;;1.47;;
13592;SDS011;6867;50.998;4.250;2023-04-03T14:27:20;2.10;;;1.10;;
13592;SDS011;6867;50.998;4.250;2023-04-03T14:29:50;5.17;;;1.50;;
13592;SDS011;6867;50.998;4.250;2023-04-03T14:32:19;2.47;;;1.67;;
13592;SDS011;6867;50.998;4.250;2023-04-03T14:34:48;2.63;;;1.40;;
13592;SDS011;6867;50.998;4.250;2023-04-03T14:37:16;4.37;;;1.67;;
13592;SDS011;6867;50.998;4.250;2023-04-03T14:39:46;3.73;;;1.50;;
13592;SDS011;6867;50.998;4.250;2023-04-03T14:42:14;2.80;;;1.47;;
13592;SDS011;6867;50.998;4.250;2023-04-03T14:44:43;1.37;;;1.23;;
13592;SDS011;6867;50.998;4.250;2023-04-03T14:47:11;1.33;;;1.03;;
13592;SDS011;6867;50.998;4.250;2023-04-03T14:49:40;1.97;;;1.20;;
13592;SDS011;6867;50.998;4.250;2023-04-03T14:52:09;1.67;;;1.00;;
13592;SDS011;6867;50.998;4.250;2023-04-03T14:54:45;3.73;;;1.20;;
13592;SDS011;6867;50.998;4.250;2023-04-03T14:57:12;2.43;;;1.50;;
13592;SDS011;6867;50.998;4.250;2023-04-03T14:59:40;1.87;;;1.00;;
13592;SDS011;6867;50.998;4.250;2023-04-03T15:02:20;2.27;;;1.30;;
13592;SDS011;6867;50.998;4.250;2023-04-03T15:04:51;1.63;;;1.20;;
13592;SDS011;6867;50.998;4.250;2023-04-03T15:07:18;6.30;;;1.40;;
13592;SDS011;6867;50.998;4.250;2023-04-03T15:09:44;3.43;;;1.50;;
13592;SDS011;6867;50.998;4.250;2023-04-03T15:12:11;1.83;;;1.40;;
13592;SDS011;6867;50.998;4.250;2023-04-03T15:14:39;2.17;;;1.20;;
13592;SDS011;6867;50.998;4.250;2023-04-03T15:17:05;2.50;;;1.13;;
13592;SDS011;6867;50.998;4.250;2023-04-03T15:19:37;3.10;;;1.03;;
13592;SDS011;6867;50.998;4.250;2023-04-03T15:22:04;2.07;;;1.07;;
13592;SDS011;6867;50.998;4.250;2023-04-03T15:24:31;2.17;;;1.23;;
13592;SDS011;6867;50.998;4.250;2023-04-03T15:26:58;2.73;;;1.07;;
13592;SDS011;6867;50.998;4.250;2023-04-03T15:29:26;2.67;;;1.10;;